Chambers, Arizona
Current Conditions -  °F | °C
As of 1:53 AM on Thursday 23 Oct 2014 (Local Time) from KRQE Reporting Station
Clear Clear  
Wind Chill: 37°   Ceiling: Unl
Heat Index: 37°   Visibility: 10mi
Dew Point: 30°   Wind: 0mph
Humidity: 76%   Direction: NA
Pressure: 30.3"   Gusts: NA
Location:  35.19°N, 109.44°W
Report Text: KRQE 230853Z AUTO 00000KT 10SM CLR 03/M01 A3030 RMK AO2 SLP186 T00281011 53003 TSNO $
Loading
Personal Weather Stations






























Interactive Weather Map
Tropical Storm Tracking
New forecast layout! Learn more

10-Day Weather Forecast

Advertisements
Track Severe Weather on mobile